Main page
METAR-TAF:

METAR-TAF

Airports :

Quatro de Fevereiro Airport

Luanda, Angola

latitude: 08-51S, longitude: 013-14E, elevation: 74 m

Current weather observation

The report was made 32 minutes ago, at 11:00 UTC
Wind 7 kt from the North/Northwest, varying between West and North/Northeast
Temperature 31°C
Humidity 79%
Pressure 1010 hPa
Visibility 10 km or more
Scattered clouds at a height of 2000 ft
Broken clouds at a height of 2300 ft

METAR: FNLU 041100Z 34007KT 280V030 9999 SCT020 BKN023 31/27 Q1010 NOSIG

Time: 12:32 (11:32 UTC)

Forecast

The report was made 32 minutes ago, at 11:00 UTC
Forecast valid from 04 at 12 UTC to 05 at 18 UTC
Wind 10 kt from the Northeast
Visibility 10 km or more
Scattered clouds at a height of 2200 ft
Becoming
from 05 at 14 UTC to 05 at 17 UTC
Wind 2 kt from variable directions
Broken clouds at a height of 2000 ft
drizzle,

TAF: FNLU 041100Z 0412/0518 04010KT 9999 SCT022 BECMG 0514/0517 VRB02KT DZ BKN020

Weather observations and forecasts of more than 4000 airports (METAR and TAF reports).

The available stations are represented by yellow and red dots on the map.

Hover mouse over dot to see the name of the station.

Then click to see weather observations and forecasts.

To change the map : click on the green buttons with a black cross to zoom in, on the green button with a dash to zoom out, or on the green arrows for adjacent maps.


METAR-TAF: